Time;durP1;ratioP1;P1;durP2;ratioP2;P2;SDS_P1;SDS_P2;PMS_P1;PMS_P2;Temp;Humidity;BMP_temperature;BMP_pressure;BME280_temperature;BME280_humidity;BME280_pressure;Samples;Min_cycle;Max_cycle;Signal;HPM_P1;HPM_P2
2021/01/14 00:00:20;;;;;;;41.35;19.60;;;0.00;97.90;;;;;;4974400;28;20434;-76
2021/01/14 00:02:45;;;;;;;38.17;18.40;;;0.00;97.90;;;;;;4974043;28;20110;-75
2021/01/14 00:05:13;;;;;;;38.33;19.63;;;0.00;97.90;;;;;;4973935;28;20109;-75
2021/01/14 00:07:40;;;;;;;37.00;17.85;;;0.00;97.90;;;;;;4972014;28;20031;-75
2021/01/14 00:10:07;;;;;;;33.97;17.35;;;0.00;97.80;;;;;;4972311;28;20031;-76
2021/01/14 00:12:33;;;;;;;34.05;17.70;;;0.00;97.80;;;;;;4973780;28;20465;-76
2021/01/14 00:15:00;;;;;;;33.97;17.08;;;0.00;97.80;;;;;;4973685;28;20362;-76
2021/01/14 00:17:25;;;;;;;35.17;18.00;;;0.00;97.80;;;;;;4973479;28;20027;-76
2021/01/14 00:19:51;;;;;;;30.55;17.15;;;0.00;97.70;;;;;;4973503;28;20055;-76
2021/01/14 00:22:17;;;;;;;35.28;17.63;;;-0.10;97.70;;;;;;4973784;28;20030;-75
2021/01/14 00:24:43;;;;;;;34.65;17.10;;;-0.10;97.70;;;;;;4973994;28;20031;-76
2021/01/14 00:27:09;;;;;;;34.25;17.55;;;-0.10;97.70;;;;;;4973664;28;20045;-76
2021/01/14 00:29:36;;;;;;;34.42;17.35;;;-0.10;97.70;;;;;;4973327;28;20066;-76
2021/01/14 00:32:02;;;;;;;35.53;17.83;;;-0.10;97.70;;;;;;4971980;28;20077;-76
2021/01/14 00:34:28;;;;;;;34.33;17.77;;;-0.10;97.70;;;;;;4972199;28;20038;-76
2021/01/14 00:39:38;;;;;;;38.38;18.40;;;-0.10;97.70;;;;;;4973099;28;20528;-76
2021/01/14 00:42:04;;;;;;;38.60;18.98;;;-0.10;97.80;;;;;;4973123;28;20031;-76
2021/01/14 00:44:30;;;;;;;36.30;18.80;;;-0.10;97.70;;;;;;4973236;28;20026;-76
2021/01/14 00:46:56;;;;;;;39.28;19.45;;;-0.10;97.70;;;;;;4973120;28;20028;-76
2021/01/14 00:49:23;;;;;;;38.38;19.10;;;-0.10;97.70;;;;;;4973284;28;20027;-76
2021/01/14 00:51:49;;;;;;;41.60;20.23;;;-0.10;97.70;;;;;;4973104;28;20038;-75
2021/01/14 00:54:15;;;;;;;40.67;20.40;;;-0.10;97.80;;;;;;4971730;28;20110;-76
2021/01/14 00:56:41;;;;;;;44.17;19.92;;;-0.10;98.00;;;;;;4973233;28;20038;-76
2021/01/14 00:59:08;;;;;;;45.58;20.80;;;-0.10;97.70;;;;;;4973392;28;20038;-76
2021/01/14 01:01:34;;;;;;;43.05;21.10;;;-0.10;97.70;;;;;;4971842;28;20045;-76
2021/01/14 01:04:01;;;;;;;40.47;20.80;;;-0.10;97.60;;;;;;4973112;28;20030;-76
2021/01/14 01:06:38;;;;;;;42.55;20.80;;;-0.10;97.60;;;;;;4972996;28;20037;-76
2021/01/14 01:09:06;;;;;;;40.75;21.33;;;-0.10;97.60;;;;;;4973109;28;20106;-75
2021/01/14 01:11:32;;;;;;;48.90;22.83;;;-0.20;97.50;;;;;;4972999;28;20027;-76
2021/01/14 01:13:58;;;;;;;42.40;21.15;;;-0.20;97.50;;;;;;4971940;28;20026;-76
2021/01/14 01:16:24;;;;;;;46.08;21.10;;;-0.20;97.50;;;;;;4971805;28;20389;-76
2021/01/14 01:18:50;;;;;;;45.10;22.48;;;-0.20;97.50;;;;;;4973028;28;20026;-76
2021/01/14 01:21:16;;;;;;;47.40;22.65;;;-0.20;97.40;;;;;;4976623;28;20525;-76
2021/01/14 01:23:42;;;;;;;43.85;22.35;;;-0.30;97.40;;;;;;4976760;28;20023;-76
2021/01/14 01:26:08;;;;;;;51.30;24.50;;;-0.30;97.40;;;;;;4976916;28;20090;-76
2021/01/14 01:28:34;;;;;;;49.25;22.50;;;-0.30;97.50;;;;;;4976853;28;20034;-76
2021/01/14 01:31:00;;;;;;;47.17;21.83;;;-0.30;97.50;;;;;;4976671;28;20381;-75
2021/01/14 01:33:27;;;;;;;50.85;23.70;;;-0.30;97.50;;;;;;4976704;28;20043;-75
2021/01/14 01:35:54;;;;;;;52.28;24.30;;;-0.30;97.60;;;;;;4976625;28;20023;-75
2021/01/14 01:38:20;;;;;;;49.22;23.23;;;-0.30;97.70;;;;;;4976742;28;20023;-75
2021/01/14 01:40:57;;;;;;;51.85;24.33;;;-0.30;97.70;;;;;;4959231;28;20540;-75
2021/01/14 01:43:23;;;;;;;49.10;23.55;;;-0.20;97.70;;;;;;4976621;28;20413;-75
2021/01/14 01:45:49;;;;;;;50.03;23.40;;;-0.20;97.70;;;;;;4978919;28;20088;-74
2021/01/14 01:48:17;;;;;;;47.17;23.20;;;-0.20;97.70;;;;;;4988400;28;20105;-75
2021/01/14 01:50:44;;;;;;;49.10;24.48;;;-0.20;98.00;;;;;;4988652;28;20048;-75
2021/01/14 01:53:10;;;;;;;50.17;25.85;;;-0.20;97.70;;;;;;4987576;28;20045;-75
2021/01/14 01:55:37;;;;;;;53.10;25.23;;;-0.20;97.70;;;;;;4988496;28;20030;-74
2021/01/14 01:58:04;;;;;;;51.75;24.25;;;-0.20;97.70;;;;;;4979778;28;20041;-75
2021/01/14 02:00:30;;;;;;;55.83;24.58;;;-0.20;97.70;;;;;;4977295;28;20034;-76
2021/01/14 02:02:56;;;;;;;58.03;25.80;;;-0.20;97.70;;;;;;4977782;28;20421;-76
2021/01/14 02:05:22;;;;;;;53.00;24.52;;;-0.20;97.70;;;;;;4977158;28;20084;-76
2021/01/14 02:07:58;;;;;;;54.97;25.75;;;-0.20;97.70;;;;;;4976915;28;20031;-77
2021/01/14 02:10:55;;;;;;;57.53;26.23;;;-0.20;97.60;;;;;;4976555;28;20088;-75
2021/01/14 02:13:52;;;;;;;54.80;27.25;;;-0.20;97.60;;;;;;4958959;28;20072;-74
2021/01/14 02:16:18;;;;;;;54.30;25.83;;;-0.20;97.60;;;;;;4959395;28;20133;-76
2021/01/14 02:18:45;;;;;;;54.03;26.95;;;-0.20;97.60;;;;;;4976438;28;20022;-75
2021/01/14 02:21:14;;;;;;;59.42;25.55;;;-0.20;97.60;;;;;;4975749;28;20086;-76
2021/01/14 02:24:07;;;;;;;58.47;26.77;;;-0.20;97.60;;;;;;4976115;28;20022;-76
2021/01/14 02:26:36;;;;;;;54.47;25.88;;;-0.20;97.60;;;;;;4978087;28;20077;-76
2021/01/14 02:29:02;;;;;;;57.85;25.77;;;-0.20;97.70;;;;;;4976956;28;20030;-77
2021/01/14 02:31:27;;;;;;;56.20;25.98;;;-0.20;97.70;;;;;;4972594;28;20031;-76
2021/01/14 02:33:55;;;;;;;57.83;27.10;;;-0.20;97.70;;;;;;4956074;29;20514;-77
2021/01/14 02:36:26;;;;;;;57.03;26.85;;;-0.20;97.70;;;;;;4956607;29;20110;-76
2021/01/14 02:38:52;;;;;;;55.03;26.85;;;-0.20;97.70;;;;;;4955962;29;20026;-76
2021/01/14 02:41:18;;;;;;;58.45;26.73;;;-0.20;97.70;;;;;;4954762;28;20118;-76
2021/01/14 02:43:44;;;;;;;59.60;27.27;;;-0.20;97.90;;;;;;4954427;29;20028;-76
2021/01/14 02:46:10;;;;;;;65.53;29.05;;;-0.20;97.70;;;;;;4955598;29;20374;-76
2021/01/14 02:48:42;;;;;;;61.67;28.17;;;-0.20;97.60;;;;;;4955908;29;20023;-76
2021/01/14 02:51:31;;;;;;;61.40;28.50;;;-0.20;97.70;;;;;;4955844;29;20057;-76
2021/01/14 02:53:59;;;;;;;61.08;28.75;;;-0.10;97.80;;;;;;4955878;29;20102;-76
2021/01/14 02:56:26;;;;;;;61.28;28.95;;;-0.10;97.70;;;;;;4955746;29;20110;-76
2021/01/14 02:58:58;;;;;;;59.45;26.63;;;-0.10;97.70;;;;;;4955808;29;20028;-76
2021/01/14 03:01:23;;;;;;;63.08;28.48;;;-0.10;97.70;;;;;;4955749;29;20022;-76
2021/01/14 03:03:49;;;;;;;65.88;29.80;;;-0.10;97.70;;;;;;4955597;29;20027;-76
2021/01/14 03:06:15;;;;;;;60.88;28.00;;;-0.10;97.70;;;;;;4955632;29;20386;-76
2021/01/14 03:08:41;;;;;;;62.58;28.70;;;-0.10;97.70;;;;;;4955605;29;20031;-76
2021/01/14 03:11:06;;;;;;;65.38;29.08;;;-0.10;97.70;;;;;;4937990;29;20059;-76
2021/01/14 03:13:32;;;;;;;65.65;28.48;;;-0.10;97.70;;;;;;4938272;29;20047;-76
2021/01/14 03:15:58;;;;;;;63.28;27.42;;;-0.10;97.70;;;;;;4938194;29;20031;-76
2021/01/14 03:18:23;;;;;;;64.25;28.05;;;-0.10;97.70;;;;;;4955460;29;20566;-75
2021/01/14 03:20:49;;;;;;;62.25;28.65;;;-0.10;97.80;;;;;;4955168;29;20038;-75
2021/01/14 03:23:15;;;;;;;59.67;28.30;;;-0.10;97.80;;;;;;4955211;29;20027;-76
2021/01/14 03:25:41;;;;;;;60.58;29.15;;;0.00;97.80;;;;;;4954032;29;20035;-76
2021/01/14 03:28:07;;;;;;;63.00;28.60;;;0.00;97.80;;;;;;4955321;29;20049;-76
2021/01/14 03:30:32;;;;;;;58.05;27.92;;;0.00;97.80;;;;;;4954488;29;20090;-76
2021/01/14 03:32:58;;;;;;;59.08;27.98;;;0.00;97.80;;;;;;4953628;28;20047;-76
2021/01/14 03:35:24;;;;;;;60.67;28.38;;;0.00;97.80;;;;;;4954978;29;20039;-76
2021/01/14 03:37:50;;;;;;;61.63;29.48;;;0.10;97.80;;;;;;4954885;29;20079;-76
2021/01/14 03:40:17;;;;;;;60.42;28.73;;;0.00;97.80;;;;;;4954966;29;20520;-76
2021/01/14 03:42:43;;;;;;;63.42;28.73;;;0.10;97.80;;;;;;4954167;28;20031;-76
2021/01/14 03:45:09;;;;;;;61.55;29.08;;;0.10;97.80;;;;;;4954942;29;20031;-76
2021/01/14 03:47:36;;;;;;;65.47;30.23;;;0.10;97.80;;;;;;4954627;29;20090;-77
2021/01/14 03:50:03;;;;;;;68.28;30.00;;;0.10;97.70;;;;;;4953454;29;20394;-77
2021/01/14 03:52:28;;;;;;;58.65;28.73;;;0.10;97.70;;;;;;4954789;29;20035;-76
2021/01/14 03:54:54;;;;;;;64.50;30.15;;;0.10;97.70;;;;;;4954538;29;20035;-76
2021/01/14 03:57:20;;;;;;;62.97;28.73;;;0.10;97.70;;;;;;4954495;29;20034;-76
2021/01/14 03:59:45;;;;;;;68.68;30.27;;;0.10;97.70;;;;;;4954479;29;20504;-77
2021/01/14 04:02:11;;;;;;;62.88;29.50;;;0.20;97.80;;;;;;4954637;29;20105;-77
2021/01/14 04:04:39;;;;;;;62.38;29.30;;;0.20;97.80;;;;;;4937334;29;20508;-76
2021/01/14 04:07:09;;;;;;;65.47;30.23;;;0.20;97.80;;;;;;4954451;29;20027;-76
2021/01/14 04:09:35;;;;;;;63.50;28.70;;;0.20;97.80;;;;;;4954246;29;20083;-76
2021/01/14 04:12:01;;;;;;;65.07;30.30;;;0.20;97.80;;;;;;4954411;29;20027;-75
2021/01/14 04:14:27;;;;;;;62.10;29.83;;;0.20;97.80;;;;;;4954312;29;20107;-75
2021/01/14 04:16:53;;;;;;;63.95;29.25;;;0.20;97.70;;;;;;4937236;29;20055;-75
2021/01/14 04:19:19;;;;;;;64.22;29.88;;;0.20;97.70;;;;;;4954296;29;20401;-75
2021/01/14 04:21:45;;;;;;;67.82;29.80;;;0.20;97.70;;;;;;4954064;29;20037;-75
2021/01/14 04:24:11;;;;;;;63.10;29.67;;;0.20;97.70;;;;;;4954142;29;20023;-76
2021/01/14 04:26:38;;;;;;;68.93;30.48;;;0.20;97.70;;;;;;4936834;29;20054;-76
2021/01/14 04:29:04;;;;;;;65.60;30.55;;;0.20;97.70;;;;;;4953866;29;20027;-75
2021/01/14 04:31:30;;;;;;;76.90;33.63;;;0.20;97.70;;;;;;4956215;28;20568;-74
2021/01/14 04:33:56;;;;;;;68.82;34.00;;;0.20;97.70;;;;;;4973443;28;20027;-76
2021/01/14 04:36:22;;;;;;;77.72;35.08;;;0.20;97.70;;;;;;4973197;28;20485;-75
2021/01/14 04:38:48;;;;;;;74.38;33.47;;;0.20;97.70;;;;;;4973201;28;20063;-76
2021/01/14 04:41:17;;;;;;;81.95;38.00;;;0.20;97.70;;;;;;4973353;28;20393;-75
2021/01/14 04:43:43;;;;;;;76.50;36.75;;;0.30;97.70;;;;;;4971944;28;20109;-76
2021/01/14 04:46:11;;;;;;;77.10;36.03;;;0.30;97.70;;;;;;4973387;28;20740;-77
2021/01/14 04:48:43;;;;;;;76.68;35.78;;;0.30;97.70;;;;;;4973158;28;20031;-76
2021/01/14 04:51:14;;;;;;;71.78;34.95;;;0.30;97.60;;;;;;4971755;28;20035;-76
2021/01/14 04:53:42;;;;;;;81.25;35.20;;;0.20;97.60;;;;;;4972993;28;20106;-77
2021/01/14 04:56:10;;;;;;;72.82;34.28;;;0.30;97.60;;;;;;4973016;28;20023;-77
2021/01/14 04:58:38;;;;;;;74.00;34.58;;;0.30;97.70;;;;;;4973332;28;20048;-77
2021/01/14 05:01:09;;;;;;;76.40;34.67;;;0.30;97.70;;;;;;4974416;28;20026;-77
2021/01/14 05:03:39;;;;;;;77.97;33.88;;;0.30;97.60;;;;;;4975667;28;20466;-76
2021/01/14 05:06:06;;;;;;;75.50;32.75;;;0.20;97.60;;;;;;4957252;28;20127;-76
2021/01/14 05:08:33;;;;;;;72.30;32.10;;;0.30;97.60;;;;;;4974300;28;20335;-76
2021/01/14 05:11:00;;;;;;;69.47;33.17;;;0.20;97.60;;;;;;4972963;28;20026;-76
2021/01/14 05:13:30;;;;;;;70.28;30.88;;;0.30;97.70;;;;;;4972527;28;20027;-76
2021/01/14 05:15:57;;;;;;;63.33;29.30;;;0.30;97.60;;;;;;4972627;28;20027;-76
2021/01/14 05:18:23;;;;;;;61.67;30.35;;;0.20;97.50;;;;;;4971366;28;20469;-77
2021/01/14 05:20:49;;;;;;;70.97;30.35;;;0.30;97.60;;;;;;4971573;28;20470;-77
2021/01/14 05:23:20;;;;;;;69.15;31.67;;;0.30;97.70;;;;;;4972692;28;20078;-77
2021/01/14 05:25:55;;;;;;;67.18;31.80;;;0.30;97.80;;;;;;4972659;28;20027;-76
2021/01/14 05:28:23;;;;;;;67.28;31.33;;;0.30;97.70;;;;;;4971353;28;20474;-77
2021/01/14 05:30:50;;;;;;;70.60;31.02;;;0.30;97.70;;;;;;4972745;28;20035;-77
2021/01/14 05:33:18;;;;;;;66.07;30.85;;;0.30;97.70;;;;;;4972422;28;20043;-77
2021/01/14 05:35:49;;;;;;;67.30;31.38;;;0.30;97.70;;;;;;4972382;28;20042;-77
2021/01/14 05:38:29;;;;;;;72.15;33.25;;;0.30;97.80;;;;;;4972689;28;20023;-77
2021/01/14 05:41:11;;;;;;;73.07;33.55;;;0.30;97.80;;;;;;4971822;28;20055;-76
2021/01/14 05:43:48;;;;;;;72.93;31.90;;;0.40;97.80;;;;;;4955106;28;20030;-78
2021/01/14 05:46:17;;;;;;;74.90;33.13;;;0.40;97.80;;;;;;4955104;28;20389;-77
2021/01/14 05:48:44;;;;;;;72.85;32.38;;;0.40;97.80;;;;;;4972909;28;20027;-78
2021/01/14 05:51:24;;;;;;;81.22;34.88;;;0.40;97.70;;;;;;4972331;28;20027;-77
2021/01/14 05:54:04;;;;;;;72.13;32.38;;;0.40;97.70;;;;;;4972356;28;20042;-77
2021/01/14 05:56:46;;;;;;;76.75;32.72;;;0.40;97.70;;;;;;4972439;28;20023;-77
2021/01/14 05:59:14;;;;;;;79.55;33.97;;;0.40;97.70;;;;;;4954759;28;20058;-77
2021/01/14 06:01:54;;;;;;;87.70;34.25;;;0.40;97.70;;;;;;4972012;28;20071;-78
2021/01/14 06:04:22;;;;;;;78.40;31.27;;;0.40;97.80;;;;;;4955434;28;20434;-77
2021/01/14 06:06:50;;;;;;;66.75;30.05;;;0.40;97.80;;;;;;4975224;28;20018;-78
2021/01/14 06:09:17;;;;;;;79.15;31.23;;;0.40;97.80;;;;;;4975916;28;20045;-78
2021/01/14 06:11:44;;;;;;;71.40;29.88;;;0.50;97.90;;;;;;4975542;28;20030;-78
2021/01/14 06:14:29;;;;;;;70.88;30.73;;;0.50;97.90;;;;;;4975453;28;20034;-78
2021/01/14 06:17:06;;;;;;;75.55;30.35;;;0.50;97.80;;;;;;4975322;28;20358;-77
2021/01/14 06:19:33;;;;;;;76.43;31.45;;;0.50;97.90;;;;;;4975496;28;20019;-77
2021/01/14 06:22:00;;;;;;;68.20;29.60;;;0.50;97.80;;;;;;4975790;28;20023;-77
2021/01/14 06:24:27;;;;;;;76.15;31.65;;;0.50;97.80;;;;;;4975653;28;20023;-77
2021/01/14 06:26:54;;;;;;;74.05;32.58;;;0.50;97.90;;;;;;4975041;28;20555;-77
2021/01/14 06:29:25;;;;;;;78.53;32.75;;;0.60;98.00;;;;;;4958114;28;20023;-79
2021/01/14 06:32:04;;;;;;;79.30;33.45;;;0.60;97.90;;;;;;4975269;28;20170;-77
2021/01/14 06:34:32;;;;;;;81.72;32.85;;;0.60;97.90;;;;;;4975288;28;20125;-78
2021/01/14 06:37:08;;;;;;;81.18;34.63;;;0.60;97.90;;;;;;4975262;28;20026;-78
2021/01/14 06:39:48;;;;;;;79.50;31.83;;;0.60;97.90;;;;;;4975118;28;20062;-77
2021/01/14 06:42:28;;;;;;;78.05;32.78;;;0.60;98.00;;;;;;4974806;28;20027;-78
2021/01/14 06:45:01;;;;;;;82.57;34.22;;;0.70;98.10;;;;;;4956849;28;20442;-77
2021/01/14 06:47:41;;;;;;;77.97;32.13;;;0.70;98.10;;;;;;4974897;28;20350;-77
2021/01/14 06:50:18;;;;;;;77.40;32.63;;;0.70;98.10;;;;;;4974707;28;20046;-76
2021/01/14 06:53:04;;;;;;;85.10;35.65;;;0.80;98.10;;;;;;4976069;28;20508;-75
2021/01/14 06:55:37;;;;;;;84.53;34.50;;;0.80;98.10;;;;;;4956146;28;20034;-77
2021/01/14 06:58:12;;;;;;;82.93;33.83;;;0.80;98.20;;;;;;4956527;28;20706;-76
2021/01/14 07:00:45;;;;;;;79.28;33.67;;;0.90;98.20;;;;;;4957563;28;20862;-82
2021/01/14 07:03:14;;;;;;;84.93;34.55;;;0.90;98.30;;;;;;4975679;28;20386;-82
2021/01/14 07:05:52;;;;;;;82.80;32.88;;;0.90;98.20;;;;;;4975807;28;20058;-83
2021/01/14 07:08:54;;;;;;;85.93;33.08;;;1.00;98.30;;;;;;4958344;28;20033;-82
2021/01/14 07:11:22;;;;;;;95.60;34.45;;;1.00;98.20;;;;;;4959227;28;20182;-81
2021/01/14 07:13:52;;;;;;;80.85;33.05;;;1.00;98.20;;;;;;4975827;28;20102;-82
2021/01/14 07:16:19;;;;;;;78.10;33.55;;;1.00;98.20;;;;;;4974270;28;20038;-82
2021/01/14 07:18:46;;;;;;;80.53;32.90;;;1.00;98.20;;;;;;4974242;28;20031;-81
2021/01/14 07:21:20;;;;;;;82.82;34.05;;;1.00;98.20;;;;;;4974116;28;20027;-83
2021/01/14 07:23:52;;;;;;;80.70;33.85;;;1.10;98.20;;;;;;4974734;28;20462;-82
2021/01/14 07:26:19;;;;;;;90.07;38.03;;;1.10;98.20;;;;;;4974203;28;20026;-82
2021/01/14 07:28:45;;;;;;;76.22;32.17;;;1.10;98.30;;;;;;4976046;28;20042;-82
2021/01/14 07:31:25;;;;;;;73.75;31.08;;;1.20;98.40;;;;;;4982536;28;20030;-83
2021/01/14 07:33:52;;;;;;;77.97;33.28;;;1.20;98.40;;;;;;4959723;28;20027;-82
2021/01/14 07:36:23;;;;;;;77.45;33.53;;;1.30;98.50;;;;;;4975869;28;20030;-83
2021/01/14 07:38:52;;;;;;;78.13;32.45;;;1.30;98.50;;;;;;4976066;28;20019;-82
2021/01/14 07:41:17;;;;;;;78.57;33.47;;;1.40;98.60;;;;;;4975454;28;20089;-82
2021/01/14 07:43:47;;;;;;;67.88;30.58;;;1.40;98.50;;;;;;4975218;28;20056;-82
2021/01/14 07:46:20;;;;;;;75.68;32.15;;;1.50;98.50;;;;;;4957909;28;20027;-82
2021/01/14 07:48:46;;;;;;;67.13;29.90;;;1.50;98.50;;;;;;4974877;28;20023;-84
2021/01/14 07:51:12;;;;;;;77.95;31.52;;;1.50;98.60;;;;;;4976123;28;20086;-81
2021/01/14 07:53:38;;;;;;;73.72;32.08;;;1.50;98.60;;;;;;4975771;28;20114;-79
2021/01/14 07:56:27;;;;;;;67.35;30.08;;;1.60;98.60;;;;;;4973698;28;20130;-81
2021/01/14 07:59:00;;;;;;;70.20;32.17;;;1.60;98.60;;;;;;4966514;28;20054;-84
2021/01/14 08:01:26;;;;;;;73.68;32.70;;;1.70;98.60;;;;;;4956413;28;20469;-84
2021/01/14 08:03:51;;;;;;;77.53;32.47;;;1.70;98.60;;;;;;4973989;28;20073;-82
2021/01/14 08:06:30;;;;;;;87.20;36.58;;;1.70;98.60;;;;;;4973754;28;20033;-81
2021/01/14 08:09:04;;;;;;;72.03;33.05;;;1.70;98.60;;;;;;4954469;29;20027;-80
2021/01/14 08:11:37;;;;;;;73.60;30.98;;;1.80;98.50;;;;;;4955333;29;20446;-83
2021/01/14 08:14:20;;;;;;;75.35;33.08;;;1.80;98.60;;;;;;4937994;29;20028;-81
2021/01/14 08:16:50;;;;;;;64.03;29.98;;;1.80;98.60;;;;;;4954237;29;20445;-81
2021/01/14 08:19:41;;;;;;;66.75;30.05;;;1.90;98.60;;;;;;4954162;29;20030;-82
2021/01/14 08:22:12;;;;;;;66.20;31.20;;;1.90;98.70;;;;;;4937061;29;20043;-81
2021/01/14 08:24:50;;;;;;;62.17;29.63;;;2.00;98.80;;;;;;4969065;28;20022;-81
2021/01/14 08:27:29;;;;;;;67.10;29.90;;;2.00;98.80;;;;;;4974549;28;20027;-82
2021/01/14 08:30:00;;;;;;;64.95;30.02;;;2.10;98.80;;;;;;4973733;28;20150;-82
2021/01/14 08:32:33;;;;;;;64.03;29.90;;;2.10;98.80;;;;;;4955799;28;20117;-80
2021/01/14 08:35:00;;;;;;;65.72;30.58;;;2.20;98.60;;;;;;4955745;28;20031;-80
2021/01/14 08:37:38;;;;;;;63.85;30.70;;;2.20;98.60;;;;;;4956385;28;20065;-79
2021/01/14 08:40:09;;;;;;;65.55;30.23;;;2.20;98.50;;;;;;4973103;28;20023;-82
2021/01/14 08:42:47;;;;;;;63.85;29.50;;;2.20;98.60;;;;;;4972899;28;20030;-81
2021/01/14 08:45:19;;;;;;;62.75;30.08;;;2.30;98.60;;;;;;4956146;28;20822;-81
2021/01/14 08:48:01;;;;;;;62.10;30.02;;;2.30;98.50;;;;;;4973463;28;20030;-82
2021/01/14 08:50:40;;;;;;;;;;;2.30;98.50;;;;;;4974248;28;20081;-81
2021/01/14 08:53:14;;;;;;;61.72;28.95;;;2.30;98.60;;;;;;4972163;28;20341;-81
2021/01/14 08:55:40;;;;;;;65.18;29.25;;;2.30;98.70;;;;;;4972923;28;20034;-83
2021/01/14 08:58:07;;;;;;;68.15;30.45;;;2.30;98.60;;;;;;4956091;28;20042;-80
2021/01/14 09:00:34;;;;;;;62.00;29.42;;;2.40;98.70;;;;;;4955528;28;20386;-80
2021/01/14 09:03:00;;;;;;;62.67;29.92;;;2.40;98.70;;;;;;4973831;28;20032;-81
2021/01/14 09:05:28;;;;;;;68.13;30.83;;;2.50;98.80;;;;;;4974984;28;20038;-81
2021/01/14 09:08:12;;;;;;;62.78;29.88;;;2.50;98.80;;;;;;4974065;28;20493;-79
2021/01/14 09:10:50;;;;;;;64.75;29.92;;;2.50;98.70;;;;;;4974891;28;20101;-80
2021/01/14 09:13:21;;;;;;;64.40;29.98;;;2.60;98.70;;;;;;4974954;28;20149;-82
2021/01/14 09:15:48;;;;;;;60.88;30.00;;;2.60;98.60;;;;;;4975178;28;20030;-82
2021/01/14 09:18:15;;;;;;;62.60;29.80;;;2.60;98.60;;;;;;4957411;28;20025;-82
2021/01/14 09:20:50;;;;;;;60.03;28.33;;;2.60;98.70;;;;;;4974337;28;20027;-82
2021/01/14 09:23:32;;;;;;;52.55;27.17;;;2.70;98.70;;;;;;4976430;28;20520;-82
2021/01/14 09:25:58;;;;;;;53.80;26.50;;;2.70;98.60;;;;;;4958260;28;20418;-81
2021/01/14 09:28:27;;;;;;;53.10;26.30;;;2.70;98.50;;;;;;4975324;28;20039;-81
2021/01/14 09:30:59;;;;;;;51.75;27.08;;;2.70;98.50;;;;;;4974133;28;20101;-82
2021/01/14 09:33:26;;;;;;;;;;;2.70;98.50;;;;;;4973837;28;20105;-81
2021/01/14 09:36:08;;;;;;;49.03;24.90;;;2.80;98.60;;;;;;4972793;28;20324;-82
2021/01/14 09:38:51;;;;;;;46.35;25.75;;;2.80;98.50;;;;;;4973618;28;20062;-81
2021/01/14 09:41:28;;;;;;;52.65;25.95;;;2.80;98.50;;;;;;4975146;28;20057;-81
2021/01/14 09:44:02;;;;;;;53.40;26.75;;;2.80;98.50;;;;;;4976723;28;20436;-81
2021/01/14 09:46:36;;;;;;;50.20;26.17;;;2.80;98.50;;;;;;4991473;28;20085;-80
2021/01/14 09:49:07;;;;;;;48.85;23.90;;;2.90;98.50;;;;;;4974810;28;20034;-82
2021/01/14 09:51:43;;;;;;;48.33;25.63;;;2.90;98.40;;;;;;4976636;28;20031;-82
2021/01/14 09:54:10;;;;;;;40.22;23.02;;;2.90;98.30;;;;;;4977240;28;20035;-81
2021/01/14 09:56:42;;;;;;;42.35;23.00;;;2.90;98.30;;;;;;4975514;28;20459;-78
2021/01/14 09:59:22;;;;;;;48.85;23.77;;;2.90;98.30;;;;;;4974053;28;20033;-78
2021/01/14 10:02:08;;;;;;;43.45;22.80;;;2.90;98.30;;;;;;4973967;28;20110;-78
2021/01/14 10:04:41;;;;;;;43.90;22.33;;;2.90;98.30;;;;;;4973941;28;20019;-78
2021/01/14 10:07:14;;;;;;;43.08;22.13;;;2.90;98.20;;;;;;4975067;28;20026;-76
2021/01/14 10:09:40;;;;;;;43.50;21.55;;;2.90;98.30;;;;;;4975071;28;20019;-78
2021/01/14 10:12:08;;;;;;;38.53;21.17;;;2.90;98.30;;;;;;4974867;28;20026;-77
2021/01/14 10:14:34;;;;;;;36.80;19.92;;;3.00;98.30;;;;;;4989817;28;20054;-79
2021/01/14 10:17:12;;;;;;;38.13;19.73;;;3.00;98.20;;;;;;4975096;28;20109;-79
2021/01/14 10:19:40;;;;;;;35.15;18.48;;;3.00;98.10;;;;;;4974788;28;20106;-78
2021/01/14 10:22:07;;;;;;;31.95;18.23;;;3.00;98.10;;;;;;4973548;28;20023;-78
2021/01/14 10:24:33;;;;;;;30.70;17.30;;;3.00;98.00;;;;;;4974723;28;20374;-77
2021/01/14 10:27:14;;;;;;;31.98;17.60;;;3.00;97.90;;;;;;4974625;28;20085;-79
2021/01/14 10:29:40;;;;;;;43.67;22.73;;;3.00;98.00;;;;;;4974867;28;20077;-79
2021/01/14 10:32:17;;;;;;;32.40;18.27;;;3.00;97.90;;;;;;4982746;28;20042;-80
2021/01/14 10:34:53;;;;;;;34.55;18.00;;;3.00;97.90;;;;;;4993963;28;20065;-78
2021/01/14 10:37:30;;;;;;;30.35;17.30;;;3.00;97.90;;;;;;4993385;28;20030;-77
2021/01/14 10:40:00;;;;;;;26.80;15.80;;;3.10;97.90;;;;;;4993658;28;20350;-78
2021/01/14 10:42:32;;;;;;;31.17;16.92;;;3.00;97.90;;;;;;4993725;28;20018;-76
2021/01/14 10:44:59;;;;;;;28.10;16.13;;;3.10;97.90;;;;;;4993566;28;20097;-78
2021/01/14 10:47:26;;;;;;;38.58;17.75;;;3.10;97.90;;;;;;4993796;28;20023;-77
2021/01/14 10:49:52;;;;;;;30.60;16.33;;;3.10;97.90;;;;;;4993612;28;20026;-78
2021/01/14 10:52:18;;;;;;;30.58;16.33;;;3.10;97.90;;;;;;4993113;28;20097;-77
2021/01/14 10:55:01;;;;;;;30.83;16.05;;;3.10;97.90;;;;;;4993895;28;20022;-78
2021/01/14 10:57:54;;;;;;;26.95;15.38;;;3.20;98.00;;;;;;4996107;28;20045;-80
2021/01/14 11:00:21;;;;;;;27.85;16.65;;;3.20;97.90;;;;;;4994034;28;20444;-79
2021/01/14 11:02:47;;;;;;;34.08;19.80;;;3.30;97.90;;;;;;4995020;28;20022;-80
2021/01/14 11:05:14;;;;;;;27.38;15.13;;;3.30;97.80;;;;;;4992064;28;20064;-78
2021/01/14 11:07:41;;;;;;;28.05;16.40;;;3.30;97.70;;;;;;4973705;28;20078;-79
2021/01/14 11:10:10;;;;;;;27.77;16.05;;;3.30;97.60;;;;;;4974189;28;20099;-78
2021/01/14 11:13:01;;;;;;;28.67;15.90;;;3.30;97.40;;;;;;4973760;28;20026;-79
2021/01/14 11:15:27;;;;;;;27.85;16.02;;;3.20;97.30;;;;;;4974017;28;20031;-78
2021/01/14 11:17:53;;;;;;;29.10;15.55;;;3.20;97.20;;;;;;4956353;28;20685;-78
2021/01/14 11:20:19;;;;;;;28.67;15.93;;;3.20;97.20;;;;;;4973892;28;20070;-77
2021/01/14 11:22:46;;;;;;;34.00;16.35;;;3.20;97.10;;;;;;4956246;28;20062;-80
2021/01/14 11:25:13;;;;;;;32.40;16.67;;;3.10;97.00;;;;;;4974984;28;20029;-77
2021/01/14 11:27:39;;;;;;;35.17;18.38;;;3.10;97.00;;;;;;4957654;28;20069;-78
2021/01/14 11:30:06;;;;;;;27.02;15.43;;;3.10;97.00;;;;;;4956569;28;20077;-79
2021/01/14 11:32:32;;;;;;;30.35;15.65;;;3.10;97.00;;;;;;4961302;28;20047;-78
2021/01/14 11:34:58;;;;;;;31.77;15.95;;;3.10;97.00;;;;;;4954132;29;20111;-77
2021/01/14 11:37:24;;;;;;;30.83;15.50;;;3.10;97.00;;;;;;4952399;29;20436;-78
2021/01/14 11:39:49;;;;;;;26.90;15.52;;;3.20;97.10;;;;;;4953989;29;20023;-78
2021/01/14 11:42:15;;;;;;;27.60;16.02;;;3.10;97.10;;;;;;4954143;29;20027;-77
2021/01/14 11:44:41;;;;;;;31.88;15.00;;;3.10;97.00;;;;;;4953906;29;20024;-77
2021/01/14 11:47:06;;;;;;;28.52;14.57;;;3.10;96.90;;;;;;4953798;29;20038;-79
2021/01/14 11:49:35;;;;;;;25.42;15.20;;;3.20;96.90;;;;;;4952476;29;20085;-79
2021/01/14 11:52:01;;;;;;;27.15;15.15;;;3.20;96.90;;;;;;4952972;29;20134;-78
2021/01/14 11:54:27;;;;;;;24.80;14.77;;;3.20;96.80;;;;;;4955075;29;20082;-78
2021/01/14 11:56:54;;;;;;;28.20;15.82;;;3.20;96.80;;;;;;4953505;29;20521;-78
2021/01/14 11:59:20;;;;;;;28.85;15.50;;;3.20;96.90;;;;;;4953673;29;20107;-79
2021/01/14 12:01:58;;;;;;;27.92;15.15;;;3.30;97.10;;;;;;4952771;29;20118;-77
2021/01/14 12:04:27;;;;;;;27.23;15.60;;;3.30;97.20;;;;;;4951562;28;20035;-78
2021/01/14 12:06:53;;;;;;;29.50;16.20;;;3.30;96.90;;;;;;4952845;29;20067;-78
2021/01/14 12:09:19;;;;;;;27.15;15.57;;;3.40;96.80;;;;;;4935791;29;20201;-78
2021/01/14 12:11:45;;;;;;;26.75;15.77;;;3.40;96.90;;;;;;4952537;29;20027;-77
2021/01/14 12:14:11;;;;;;;27.42;15.35;;;3.40;96.80;;;;;;4952895;29;20038;-78
2021/01/14 12:16:36;;;;;;;29.83;16.50;;;3.50;96.80;;;;;;4953128;29;20033;-77
2021/01/14 12:19:02;;;;;;;28.40;16.00;;;3.50;96.70;;;;;;4935990;29;20066;-80
2021/01/14 12:21:28;;;;;;;31.10;16.67;;;3.50;96.50;;;;;;4952559;29;20053;-78
2021/01/14 12:23:54;;;;;;;27.48;15.60;;;3.50;96.40;;;;;;4953430;29;20083;-78
2021/01/14 12:26:19;;;;;;;28.98;16.58;;;3.40;96.30;;;;;;4951939;29;20043;-78
2021/01/14 12:28:46;;;;;;;29.80;16.15;;;3.40;96.10;;;;;;4952872;29;20458;-78
2021/01/14 12:31:12;;;;;;;27.88;16.20;;;3.40;95.90;;;;;;4954107;28;20023;-78
2021/01/14 12:33:38;;;;;;;31.40;16.45;;;3.30;95.80;;;;;;4972664;28;20030;-78
2021/01/14 12:36:05;;;;;;;30.02;16.75;;;3.30;95.80;;;;;;4970427;28;20038;-77
2021/01/14 12:38:30;;;;;;;28.55;16.20;;;3.30;95.90;;;;;;4971993;28;20051;-80
2021/01/14 12:40:56;;;;;;;29.38;16.55;;;3.20;95.90;;;;;;4971518;28;20528;-79
2021/01/14 12:43:22;;;;;;;29.75;16.02;;;3.20;95.70;;;;;;4972283;28;20023;-77
2021/01/14 12:45:50;;;;;;;30.25;17.08;;;3.10;95.50;;;;;;4972667;28;20385;-78
2021/01/14 12:48:20;;;;;;;29.58;16.30;;;3.10;95.50;;;;;;4972093;28;20461;-77
2021/01/14 12:50:46;;;;;;;29.60;16.38;;;3.00;95.30;;;;;;4971684;28;20033;-77